Terminal Aerodrome Forecast
Issued by NWS

Home | Current Version | Previous Version | Text Only | Print | Product List | Glossary On
Versions: 1 2 3 4 5 6 7 8 9 10 11 12 13 14
968
FTUS45 KVEF 281727
TAFVGT
TAF
KVGT 281727Z 2818/2918 12005KT P6SM FEW120
     FM290300 VRB05KT P6SM SKC
     FM290800 34007KT P6SM SKC
     FM291500 VRB05KT P6SM SKC=

USA.gov is the U.S. government's official web portal to all federal, state and local government web resources and services.